Time;durP1;ratioP1;P1;durP2;ratioP2;P2;SDS_P1;SDS_P2;PMS_P1;PMS_P2;Temp;Humidity;BMP_temperature;BMP_pressure;BME280_temperature;BME280_humidity;BME280_pressure;Samples;Min_cycle;Max_cycle;Signal;HPM_P1;HPM_P2
2023/06/08 00:01:28;;;;;;;1.98;1.50;;;18.30;62.90;;;;;;5030728;28;20362;-58
2023/06/08 00:03:54;;;;;;;1.85;1.35;;;18.30;62.80;;;;;;5029703;28;20028;-56
2023/06/08 00:06:23;;;;;;;3.20;1.95;;;18.20;63.10;;;;;;5033504;28;20017;-57
2023/06/08 00:08:49;;;;;;;1.23;1.13;;;18.20;63.20;;;;;;5029809;28;20026;-58
2023/06/08 00:11:15;;;;;;;5.15;1.70;;;18.10;63.30;;;;;;5030019;28;20037;-57
2023/06/08 00:13:41;;;;;;;2.80;1.30;;;18.10;63.50;;;;;;5029566;28;20083;-58
2023/06/08 00:16:06;;;;;;;1.60;1.10;;;18.10;63.60;;;;;;5026502;28;20026;-57
2023/06/08 00:18:32;;;;;;;2.42;1.65;;;18.00;63.50;;;;;;5037658;28;20072;-58
2023/06/08 00:20:58;;;;;;;3.00;1.48;;;18.00;63.70;;;;;;5029532;28;20029;-56
2023/06/08 00:23:24;;;;;;;3.80;2.03;;;18.00;63.70;;;;;;5033723;28;20028;-58
2023/06/08 00:25:50;;;;;;;3.08;1.77;;;18.00;63.80;;;;;;5029088;28;20497;-58
2023/06/08 00:28:16;;;;;;;3.20;1.90;;;18.00;64.00;;;;;;5042024;28;20025;-58
2023/06/08 00:30:41;;;;;;;6.53;1.98;;;17.90;64.00;;;;;;5030347;28;20040;-58
2023/06/08 00:33:07;;;;;;;5.82;2.15;;;17.80;64.10;;;;;;5028637;28;20075;-65
2023/06/08 00:35:33;;;;;;;2.65;1.63;;;17.80;64.20;;;;;;5028774;28;20590;-64
2023/06/08 00:37:58;;;;;;;8.18;1.80;;;17.80;64.30;;;;;;5036747;28;20500;-65
2023/06/08 00:40:24;;;;;;;2.17;1.60;;;17.70;64.40;;;;;;5031669;28;20033;-65
2023/06/08 00:42:50;;;;;;;1.73;1.40;;;17.70;64.50;;;;;;5038830;28;20399;-57
2023/06/08 00:45:15;;;;;;;3.88;1.85;;;17.70;64.70;;;;;;5037877;28;20099;-56
2023/06/08 00:47:41;;;;;;;2.50;1.90;;;17.70;64.70;;;;;;5027167;28;20039;-58
2023/06/08 00:50:08;;;;;;;4.68;2.10;;;17.60;64.70;;;;;;5027669;28;20033;-57
2023/06/08 00:52:37;;;;;;;2.08;1.27;;;17.60;64.80;;;;;;5024412;28;20029;-58
2023/06/08 00:55:03;;;;;;;7.63;1.65;;;17.60;65.00;;;;;;5028655;28;20781;-65
2023/06/08 00:57:32;;;;;;;4.15;1.63;;;17.50;65.00;;;;;;5030569;28;20036;-65
2023/06/08 01:00:01;;;;;;;3.58;1.77;;;17.50;65.10;;;;;;5032095;28;20612;-65
2023/06/08 01:02:27;;;;;;;1.90;1.40;;;17.40;65.10;;;;;;5028165;28;20112;-65
2023/06/08 01:04:53;;;;;;;8.20;2.83;;;17.30;65.50;;;;;;5028489;28;20083;-58
2023/06/08 01:07:44;;;;;;;2.58;1.95;;;17.20;65.90;;;;;;5029596;28;20021;-64
2023/06/08 01:10:37;;;;;;;2.30;1.73;;;17.10;66.00;;;;;;5036365;28;20017;-66
2023/06/08 01:13:25;;;;;;;3.50;1.67;;;17.00;66.30;;;;;;5029852;28;20041;-65
2023/06/08 01:15:58;;;;;;;3.00;1.95;;;17.00;66.30;;;;;;5030913;28;20392;-64
2023/06/08 01:18:32;;;;;;;4.93;1.85;;;17.00;66.40;;;;;;5040560;28;20020;-64
2023/06/08 01:21:24;;;;;;;3.53;1.75;;;17.00;66.50;;;;;;5031314;28;20034;-64
2023/06/08 01:23:59;;;;;;;2.83;1.52;;;16.90;66.50;;;;;;5028081;28;20036;-64
2023/06/08 01:26:26;;;;;;;2.67;1.70;;;16.90;66.50;;;;;;5038345;28;20029;-57
2023/06/08 01:28:52;;;;;;;2.80;1.30;;;16.90;66.70;;;;;;5036916;28;20044;-56
2023/06/08 01:31:18;;;;;;;3.63;2.00;;;16.90;66.70;;;;;;5033171;28;20021;-57
2023/06/08 01:33:44;;;;;;;3.55;2.13;;;16.90;66.80;;;;;;5040305;28;20140;-57
2023/06/08 01:36:21;;;;;;;4.57;1.92;;;16.80;66.70;;;;;;5030911;28;20116;-56
2023/06/08 01:39:05;;;;;;;2.58;1.63;;;16.90;66.70;;;;;;5034104;28;20049;-58
2023/06/08 01:41:35;;;;;;;3.42;2.08;;;16.90;66.80;;;;;;5041688;28;20388;-57
2023/06/08 01:44:03;;;;;;;2.22;1.40;;;16.70;66.90;;;;;;5036343;28;20036;-56
2023/06/08 01:46:31;;;;;;;3.40;1.52;;;16.70;67.00;;;;;;5028932;28;20021;-57
2023/06/08 01:48:58;;;;;;;2.92;1.80;;;16.70;67.20;;;;;;5029185;28;20100;-57
2023/06/08 01:51:25;;;;;;;4.57;2.55;;;16.70;67.80;;;;;;5020307;28;20018;-57
2023/06/08 01:54:00;;;;;;;3.75;2.05;;;16.70;67.20;;;;;;5037159;28;20056;-57
2023/06/08 01:56:33;;;;;;;6.63;2.10;;;16.70;67.20;;;;;;5030331;28;20022;-58
2023/06/08 01:58:59;;;;;;;2.90;1.30;;;16.70;67.30;;;;;;5024727;28;20053;-55
2023/06/08 02:01:25;;;;;;;1.60;1.50;;;16.70;67.30;;;;;;5030612;28;20527;-56
2023/06/08 02:03:50;;;;;;;4.97;1.80;;;16.70;67.30;;;;;;5035313;28;20025;-57
2023/06/08 02:06:16;;;;;;;2.00;1.17;;;16.70;67.20;;;;;;5027691;28;20022;-58
2023/06/08 02:08:42;;;;;;;1.75;1.42;;;16.70;67.20;;;;;;5037469;28;20048;-57
2023/06/08 02:11:09;;;;;;;2.63;1.88;;;16.70;67.30;;;;;;5027799;28;20033;-58
2023/06/08 02:13:42;;;;;;;5.35;1.60;;;16.70;67.50;;;;;;5028140;28;20029;-58
2023/06/08 02:16:08;;;;;;;4.47;1.58;;;16.60;67.50;;;;;;5035871;28;20339;-64
2023/06/08 02:18:39;;;;;;;1.67;1.20;;;16.60;67.70;;;;;;5035653;28;20032;-64
2023/06/08 02:21:05;;;;;;;4.20;1.38;;;16.60;67.70;;;;;;5024862;28;20797;-57
2023/06/08 02:23:30;;;;;;;5.53;3.28;;;16.50;67.70;;;;;;5031787;28;20029;-57
2023/06/08 02:25:57;;;;;;;3.58;2.17;;;16.50;67.80;;;;;;5032607;28;20032;-57
2023/06/08 02:28:22;;;;;;;2.05;1.77;;;16.50;67.90;;;;;;5029905;28;20036;-56
2023/06/08 02:30:48;;;;;;;3.28;1.73;;;16.50;68.00;;;;;;5032953;28;20033;-58
2023/06/08 02:33:14;;;;;;;3.00;2.22;;;16.50;68.00;;;;;;5033218;28;20028;-58
2023/06/08 02:35:39;;;;;;;2.95;1.58;;;16.50;67.90;;;;;;5029592;28;20117;-58
2023/06/08 02:38:06;;;;;;;2.75;1.23;;;16.50;67.90;;;;;;5018846;28;20108;-57
2023/06/08 02:40:31;;;;;;;2.97;1.48;;;16.50;68.60;;;;;;5022165;28;20032;-56
2023/06/08 02:42:58;;;;;;;3.28;1.67;;;16.50;67.90;;;;;;5018330;28;20033;-57
2023/06/08 02:45:23;;;;;;;3.50;1.42;;;16.50;68.00;;;;;;5019393;28;20020;-56
2023/06/08 02:47:49;;;;;;;2.33;1.80;;;16.40;67.90;;;;;;5030572;28;20022;-57
2023/06/08 02:50:15;;;;;;;4.90;1.88;;;16.40;68.10;;;;;;5026959;28;20125;-58
2023/06/08 02:52:40;;;;;;;2.35;1.52;;;16.40;68.00;;;;;;5027196;28;20699;-66
2023/06/08 02:55:07;;;;;;;2.35;1.80;;;16.40;68.00;;;;;;5028435;28;20448;-65
2023/06/08 02:57:33;;;;;;;4.03;1.95;;;16.40;68.10;;;;;;5022602;28;20583;-65
2023/06/08 03:00:00;;;;;;;4.93;1.95;;;16.30;68.20;;;;;;5031376;28;20309;-65
2023/06/08 03:02:27;;;;;;;5.63;2.17;;;16.20;68.40;;;;;;5041399;28;20025;-64
2023/06/08 03:04:53;;;;;;;2.67;2.03;;;16.20;68.50;;;;;;5034960;28;20440;-65
2023/06/08 03:07:19;;;;;;;2.90;1.75;;;16.20;68.50;;;;;;5033120;28;20013;-64
2023/06/08 03:09:45;;;;;;;2.70;1.80;;;16.10;68.50;;;;;;5029723;28;20060;-66
2023/06/08 03:12:12;;;;;;;6.00;2.10;;;16.20;68.70;;;;;;5038353;28;20486;-65
2023/06/08 03:14:41;;;;;;;3.17;2.25;;;16.10;68.70;;;;;;5032379;28;20033;-65
2023/06/08 03:17:07;;;;;;;2.05;1.65;;;16.10;68.70;;;;;;5036801;28;20070;-65
2023/06/08 03:19:33;;;;;;;2.63;1.77;;;16.10;68.70;;;;;;5034806;28;20446;-65
2023/06/08 03:22:04;;;;;;;6.00;2.35;;;16.00;68.80;;;;;;5028109;28;20060;-65
2023/06/08 03:24:32;;;;;;;2.60;2.10;;;16.00;68.80;;;;;;5028359;28;20497;-66
2023/06/08 03:26:59;;;;;;;4.00;2.30;;;16.00;68.80;;;;;;5020119;28;20036;-64
2023/06/08 03:29:25;;;;;;;2.40;1.98;;;16.00;68.90;;;;;;5028314;28;20017;-65
2023/06/08 03:31:51;;;;;;;4.85;2.75;;;15.90;69.00;;;;;;5009842;28;20370;-65
2023/06/08 03:34:18;;;;;;;5.20;2.42;;;15.90;69.20;;;;;;5029278;28;20033;-65
2023/06/08 03:36:44;;;;;;;4.28;1.98;;;15.80;69.20;;;;;;5029916;28;20049;-64
2023/06/08 03:39:11;;;;;;;4.10;2.42;;;15.80;69.40;;;;;;5023816;28;21438;-64
2023/06/08 03:41:37;;;;;;;3.90;2.05;;;15.80;69.40;;;;;;5025377;28;20096;-58
2023/06/08 03:44:03;;;;;;;3.92;1.75;;;15.70;69.40;;;;;;5026603;28;20810;-56
2023/06/08 03:46:28;;;;;;;4.93;2.08;;;15.70;69.60;;;;;;5030419;28;20031;-58
2023/06/08 03:48:54;;;;;;;8.45;2.15;;;15.70;69.60;;;;;;5028616;28;20453;-58
2023/06/08 03:51:21;;;;;;;3.03;1.85;;;15.70;69.60;;;;;;5033778;28;20384;-57
2023/06/08 03:53:51;;;;;;;3.22;1.85;;;15.70;69.60;;;;;;5027807;28;20033;-57
2023/06/08 03:56:25;;;;;;;3.70;2.05;;;15.70;69.50;;;;;;5062554;27;1307025;-56
2023/06/08 03:58:51;;;;;;;2.60;1.65;;;15.70;69.60;;;;;;5065005;28;20036;-59
2023/06/08 04:01:17;;;;;;;3.08;1.70;;;15.70;69.70;;;;;;5078438;28;20039;-56
2023/06/08 04:03:43;;;;;;;3.15;1.98;;;15.60;69.70;;;;;;5083229;28;20424;-59
2023/06/08 04:06:09;;;;;;;5.55;2.10;;;15.70;69.80;;;;;;5065336;28;20016;-59
2023/06/08 04:08:39;;;;;;;4.25;2.60;;;15.60;69.90;;;;;;5085301;28;20035;-59
2023/06/08 04:11:07;;;;;;;7.63;2.65;;;15.70;70.00;;;;;;5084044;28;20017;-58
2023/06/08 04:13:34;;;;;;;4.18;2.20;;;15.70;70.00;;;;;;5085888;28;20028;-58
2023/06/08 04:16:00;;;;;;;6.68;2.20;;;15.60;69.90;;;;;;5066929;28;20078;-59
2023/06/08 04:18:26;;;;;;;4.07;2.22;;;15.60;70.10;;;;;;5083176;28;20028;-58
2023/06/08 04:20:52;;;;;;;3.60;2.05;;;15.60;70.10;;;;;;5084338;28;20025;-58
2023/06/08 04:23:18;;;;;;;2.03;1.60;;;15.60;70.00;;;;;;5083536;28;20035;-58
2023/06/08 04:25:44;;;;;;;3.40;2.08;;;15.70;70.10;;;;;;5078002;28;20024;-59
2023/06/08 04:28:09;;;;;;;4.47;1.90;;;15.70;70.00;;;;;;5081869;28;20526;-59
2023/06/08 04:30:35;;;;;;;4.00;1.98;;;15.70;69.90;;;;;;5083909;28;20041;-58
2023/06/08 04:33:01;;;;;;;4.90;2.35;;;15.80;70.50;;;;;;5080244;28;20021;-58
2023/06/08 04:35:27;;;;;;;4.55;2.17;;;15.90;69.80;;;;;;5081279;28;20032;-56
2023/06/08 04:37:52;;;;;;;3.10;2.08;;;15.90;69.70;;;;;;5073802;28;20052;-57
2023/06/08 04:40:19;;;;;;;6.43;2.70;;;15.90;69.60;;;;;;5080711;28;20047;-55
2023/06/08 04:42:45;;;;;;;2.13;1.60;;;16.00;69.60;;;;;;5066442;28;20118;-58
2023/06/08 04:45:12;;;;;;;3.40;2.13;;;16.00;69.50;;;;;;5074594;28;20031;-58
2023/06/08 04:47:40;;;;;;;3.13;2.03;;;16.00;69.50;;;;;;5078465;28;20115;-66
2023/06/08 04:50:09;;;;;;;3.92;2.38;;;16.10;69.40;;;;;;5077347;28;20429;-66
2023/06/08 04:52:40;;;;;;;2.40;1.98;;;16.10;69.40;;;;;;5078561;28;20599;-66
2023/06/08 04:55:13;;;;;;;5.22;2.40;;;16.00;69.50;;;;;;5066627;28;20186;-66
2023/06/08 04:57:40;;;;;;;5.13;2.03;;;16.00;69.50;;;;;;5079307;28;20030;-64
2023/06/08 05:00:09;;;;;;;5.15;2.65;;;16.00;69.40;;;;;;5084318;28;20047;-63
2023/06/08 05:02:34;;;;;;;3.30;1.88;;;16.00;69.50;;;;;;5083638;28;20558;-63
2023/06/08 05:05:00;;;;;;;3.50;2.42;;;16.00;69.60;;;;;;5083694;28;20111;-64
2023/06/08 05:07:26;;;;;;;4.30;2.60;;;16.00;69.60;;;;;;5071444;28;20024;-64
2023/06/08 05:09:51;;;;;;;2.65;2.22;;;16.00;69.70;;;;;;5068754;28;20134;-63
2023/06/08 05:12:17;;;;;;;6.35;2.92;;;16.00;69.60;;;;;;5070936;28;20040;-65
2023/06/08 05:14:43;;;;;;;4.45;2.28;;;16.00;69.70;;;;;;5069797;28;20036;-71
2023/06/08 05:17:08;;;;;;;4.05;2.22;;;16.10;69.70;;;;;;5050881;28;20024;-58
2023/06/08 05:19:35;;;;;;;3.35;2.00;;;16.10;69.50;;;;;;5069004;28;20037;-59
2023/06/08 05:22:00;;;;;;;5.97;2.88;;;16.20;69.60;;;;;;5070175;28;20017;-68
2023/06/08 05:24:26;;;;;;;5.45;3.00;;;16.20;69.50;;;;;;5068240;28;20527;-66
2023/06/08 05:26:52;;;;;;;4.47;2.70;;;16.30;69.30;;;;;;5061952;28;20108;-67
2023/06/08 05:29:17;;;;;;;5.00;2.58;;;16.30;69.30;;;;;;5066893;28;20091;-66
2023/06/08 05:31:43;;;;;;;5.43;2.00;;;16.30;69.20;;;;;;5049455;28;20491;-66
2023/06/08 05:34:09;;;;;;;3.75;2.17;;;16.40;69.20;;;;;;5063665;28;20041;-66
2023/06/08 05:36:35;;;;;;;2.50;1.73;;;16.40;69.10;;;;;;5065941;28;20360;-66
2023/06/08 05:39:03;;;;;;;3.58;2.03;;;16.50;69.10;;;;;;5061268;28;20033;-66
2023/06/08 05:41:29;;;;;;;2.78;1.85;;;16.50;68.90;;;;;;5064812;28;20029;-66
2023/06/08 05:43:55;;;;;;;3.58;2.15;;;16.70;68.70;;;;;;5059442;28;20056;-66
2023/06/08 05:46:21;;;;;;;2.20;1.50;;;16.70;68.40;;;;;;5065096;28;20107;-66
2023/06/08 05:48:46;;;;;;;2.90;1.85;;;16.80;68.30;;;;;;5063257;28;20021;-66
2023/06/08 05:51:12;;;;;;;4.00;1.67;;;16.80;68.80;;;;;;5057160;28;20033;-64
2023/06/08 05:53:39;;;;;;;4.07;2.10;;;16.90;68.20;;;;;;5059734;28;20048;-63
2023/06/08 05:56:04;;;;;;;4.93;2.67;;;17.00;68.10;;;;;;5066176;28;20056;-64
2023/06/08 05:58:30;;;;;;;3.35;2.20;;;17.00;68.00;;;;;;5048925;28;20479;-63
2023/06/08 06:00:58;;;;;;;3.30;1.63;;;17.10;67.80;;;;;;5060778;28;20025;-53
2023/06/08 06:03:24;;;;;;;2.72;2.13;;;17.20;67.60;;;;;;5064924;28;20078;-56
2023/06/08 06:05:50;;;;;;;4.22;2.85;;;17.30;67.50;;;;;;5061155;28;20029;-56
2023/06/08 06:08:16;;;;;;;3.60;2.17;;;17.30;67.30;;;;;;5059479;28;20033;-54
2023/06/08 06:10:41;;;;;;;4.78;2.35;;;17.30;67.20;;;;;;5059262;28;20029;-55
2023/06/08 06:13:10;;;;;;;2.95;1.60;;;17.40;67.10;;;;;;5068036;28;20028;-57
2023/06/08 06:15:35;;;;;;;4.35;2.20;;;17.40;66.90;;;;;;5058485;28;20098;-56
2023/06/08 06:18:01;;;;;;;5.15;1.92;;;17.50;66.90;;;;;;5062966;28;20021;-56
2023/06/08 06:20:30;;;;;;;2.67;1.70;;;17.50;66.70;;;;;;5058402;28;20066;-56
2023/06/08 06:22:56;;;;;;;4.15;2.28;;;17.60;66.50;;;;;;5059164;28;20024;-53
2023/06/08 06:25:21;;;;;;;2.78;1.88;;;17.60;66.30;;;;;;5064918;28;20540;-56
2023/06/08 06:27:47;;;;;;;2.53;1.70;;;17.70;66.20;;;;;;5064253;28;20033;-64
2023/06/08 06:30:14;;;;;;;3.13;1.83;;;17.80;66.20;;;;;;5067871;28;20119;-65
2023/06/08 06:32:40;;;;;;;3.47;1.80;;;17.90;65.90;;;;;;5058463;28;20361;-65
2023/06/08 06:35:06;;;;;;;5.05;2.15;;;18.00;65.80;;;;;;5064563;28;20040;-64
2023/06/08 06:37:35;;;;;;;7.10;2.50;;;18.10;65.70;;;;;;5067013;28;20075;-64
2023/06/08 06:40:04;;;;;;;4.35;1.92;;;18.10;65.40;;;;;;5065742;28;20070;-65
2023/06/08 06:42:30;;;;;;;4.43;2.00;;;18.20;65.30;;;;;;5065880;28;20029;-65
2023/06/08 06:44:57;;;;;;;5.60;1.73;;;18.20;65.10;;;;;;5044194;28;20123;-57
2023/06/08 06:47:22;;;;;;;2.75;1.75;;;18.30;65.70;;;;;;5063572;28;20418;-58
2023/06/08 06:49:48;;;;;;;3.33;1.90;;;18.20;65.00;;;;;;5044317;28;20023;-57
2023/06/08 06:52:13;;;;;;;5.40;1.80;;;18.20;65.00;;;;;;5063102;28;20583;-56
2023/06/08 06:54:39;;;;;;;2.97;1.98;;;18.20;65.20;;;;;;5059402;28;20032;-58
2023/06/08 06:57:06;;;;;;;2.97;1.92;;;18.10;65.10;;;;;;5050157;28;20090;-58
2023/06/08 06:59:32;;;;;;;6.93;1.83;;;18.10;65.20;;;;;;5050442;28;20048;-63
2023/06/08 07:01:57;;;;;;;4.00;1.80;;;18.10;65.30;;;;;;5056589;28;20103;-64
2023/06/08 07:04:23;;;;;;;2.83;1.48;;;18.10;65.30;;;;;;5068353;28;20044;-62
2023/06/08 07:06:50;;;;;;;5.25;2.15;;;18.10;65.20;;;;;;5062600;28;20036;-59
2023/06/08 07:09:16;;;;;;;4.22;2.08;;;18.10;65.30;;;;;;5034291;28;20072;-59
2023/06/08 07:11:42;;;;;;;2.67;1.80;;;18.20;65.20;;;;;;5067258;28;20556;-59
2023/06/08 07:14:08;;;;;;;3.00;1.70;;;18.30;65.20;;;;;;5050951;28;20368;-59
2023/06/08 07:16:33;;;;;;;3.08;2.00;;;18.40;65.00;;;;;;5046758;28;20021;-59
2023/06/08 07:18:59;;;;;;;4.35;1.83;;;18.50;64.90;;;;;;5053890;28;20029;-59
2023/06/08 07:21:25;;;;;;;2.28;1.50;;;18.60;64.70;;;;;;5067638;28;20013;-59
2023/06/08 07:23:51;;;;;;;4.30;1.92;;;18.70;64.50;;;;;;5057533;28;20021;-66
2023/06/08 07:26:17;;;;;;;2.92;1.77;;;18.70;64.30;;;;;;5064117;28;20369;-66
2023/06/08 07:28:43;;;;;;;8.32;3.00;;;18.80;64.20;;;;;;5065835;28;20040;-61
2023/06/08 07:31:09;;;;;;;3.88;2.08;;;18.80;64.00;;;;;;5066980;28;20032;-61
2023/06/08 07:33:34;;;;;;;2.22;1.65;;;18.80;64.10;;;;;;5050997;28;20037;-62
2023/06/08 07:36:00;;;;;;;9.23;2.00;;;18.80;64.00;;;;;;5034098;28;20086;-61
2023/06/08 07:38:26;;;;;;;3.90;1.73;;;18.80;64.00;;;;;;5063938;28;20113;-61
2023/06/08 07:40:51;;;;;;;4.60;2.15;;;18.90;64.10;;;;;;5048304;28;20116;-61
2023/06/08 07:43:17;;;;;;;2.03;1.25;;;18.90;63.80;;;;;;5069093;28;20021;-62
2023/06/08 07:45:44;;;;;;;2.72;1.92;;;19.00;63.80;;;;;;5066987;28;20525;-61
2023/06/08 07:48:09;;;;;;;3.72;1.77;;;19.10;64.30;;;;;;5048255;28;20029;-62
2023/06/08 07:50:35;;;;;;;2.15;1.60;;;19.20;63.50;;;;;;5046545;28;20082;-61
2023/06/08 07:53:01;;;;;;;2.47;1.77;;;19.20;63.40;;;;;;5058567;28;20028;-62
2023/06/08 07:55:27;;;;;;;2.47;1.48;;;19.30;63.40;;;;;;5063916;28;20048;-61
2023/06/08 07:57:52;;;;;;;2.20;1.98;;;19.40;63.30;;;;;;5067975;28;20024;-60
2023/06/08 08:00:19;;;;;;;2.80;1.58;;;19.40;63.20;;;;;;5066156;28;20032;-60
2023/06/08 08:02:45;;;;;;;5.40;1.95;;;19.40;63.10;;;;;;5067902;28;20035;-60
2023/06/08 08:05:11;;;;;;;1.95;1.48;;;19.50;62.90;;;;;;5043994;28;20119;-54
2023/06/08 08:07:37;;;;;;;2.75;1.70;;;19.60;62.80;;;;;;5058607;28;20090;-53
2023/06/08 08:10:03;;;;;;;4.65;1.70;;;19.60;62.70;;;;;;5053651;28;20029;-54
2023/06/08 08:12:29;;;;;;;4.25;1.85;;;19.80;62.60;;;;;;5062123;28;20038;-54
2023/06/08 08:14:55;;;;;;;4.53;1.92;;;19.80;62.60;;;;;;5057747;28;20399;-53
2023/06/08 08:17:20;;;;;;;4.88;1.75;;;19.80;62.20;;;;;;5062669;28;20158;-56
2023/06/08 08:19:46;;;;;;;2.03;1.30;;;19.80;62.30;;;;;;5066658;28;20375;-56
2023/06/08 08:22:12;;;;;;;2.42;1.45;;;19.80;62.20;;;;;;5069888;28;20037;-54
2023/06/08 08:24:37;;;;;;;4.95;2.03;;;19.90;62.10;;;;;;5033240;28;20037;-56
2023/06/08 08:27:03;;;;;;;3.47;1.45;;;19.90;61.90;;;;;;5066631;28;20033;-61
2023/06/08 08:29:29;;;;;;;3.88;1.88;;;19.80;61.80;;;;;;5062522;28;20041;-61
2023/06/08 08:31:55;;;;;;;2.65;1.58;;;19.80;61.80;;;;;;5066370;28;20570;-61
2023/06/08 08:34:20;;;;;;;2.20;1.35;;;19.80;62.10;;;;;;5063443;28;20095;-61
2023/06/08 08:36:46;;;;;;;2.45;2.00;;;19.80;62.00;;;;;;5062311;28;20480;-61
2023/06/08 08:39:14;;;;;;;2.60;1.90;;;19.90;62.00;;;;;;5064008;28;20024;-61
2023/06/08 08:41:42;;;;;;;2.67;1.92;;;19.90;62.00;;;;;;5070097;28;20025;-61
2023/06/08 08:44:09;;;;;;;3.08;1.92;;;19.90;62.10;;;;;;5065084;28;20005;-61
2023/06/08 08:46:37;;;;;;;3.15;1.55;;;19.90;61.90;;;;;;5063008;28;20041;-61
2023/06/08 08:49:08;;;;;;;2.78;1.58;;;19.90;61.90;;;;;;5068455;28;20537;-55
2023/06/08 08:51:38;;;;;;;2.63;1.63;;;20.00;61.80;;;;;;5067008;28;20089;-55
2023/06/08 08:54:05;;;;;;;2.85;1.67;;;19.90;61.70;;;;;;5068341;28;20422;-56
2023/06/08 08:56:36;;;;;;;3.58;1.50;;;19.90;61.50;;;;;;5069119;28;20045;-57
2023/06/08 08:59:04;;;;;;;2.90;1.85;;;19.90;61.30;;;;;;5062357;28;20032;-55
2023/06/08 09:01:32;;;;;;;6.38;2.28;;;19.90;61.30;;;;;;5068696;28;20033;-54
2023/06/08 09:03:59;;;;;;;3.95;2.08;;;19.80;61.20;;;;;;5067357;28;20055;-56
2023/06/08 09:06:25;;;;;;;2.47;1.42;;;19.80;61.30;;;;;;5068175;28;20029;-55
2023/06/08 09:08:51;;;;;;;3.20;1.88;;;19.80;61.20;;;;;;5064894;28;20478;-56
2023/06/08 09:11:17;;;;;;;2.35;1.90;;;19.90;61.30;;;;;;5066267;28;20112;-54
2023/06/08 09:13:43;;;;;;;2.63;1.33;;;19.90;61.30;;;;;;5064318;28;20081;-55
2023/06/08 09:16:16;;;;;;;3.80;1.35;;;20.00;61.10;;;;;;5069762;28;20032;-54
2023/06/08 09:18:43;;;;;;;4.30;1.50;;;20.20;60.90;;;;;;5068896;28;20548;-54
2023/06/08 09:21:18;;;;;;;2.13;1.45;;;20.60;60.50;;;;;;5044265;28;20413;-55
2023/06/08 09:23:45;;;;;;;1.52;1.33;;;21.00;59.50;;;;;;5069700;28;20059;-55
2023/06/08 09:26:13;;;;;;;4.03;1.88;;;21.20;58.90;;;;;;5034467;28;20029;-55
2023/06/08 09:28:39;;;;;;;2.40;1.70;;;21.50;58.40;;;;;;5068415;28;20040;-57
2023/06/08 09:31:09;;;;;;;2.78;1.23;;;21.80;57.90;;;;;;5070396;28;20032;-56
2023/06/08 09:33:35;;;;;;;2.10;1.42;;;22.00;57.60;;;;;;5070804;28;20032;-61
2023/06/08 09:36:01;;;;;;;2.15;1.80;;;22.10;57.40;;;;;;5065886;28;20528;-61
2023/06/08 09:38:29;;;;;;;1.42;1.25;;;22.20;57.20;;;;;;5062593;28;20032;-62
2023/06/08 09:41:17;;;;;;;3.63;1.17;;;22.30;57.20;;;;;;5061137;28;20020;-61
2023/06/08 09:43:47;;;;;;;2.28;1.38;;;22.50;56.90;;;;;;5065621;28;20065;-61
2023/06/08 09:46:16;;;;;;;2.40;1.17;;;22.70;56.50;;;;;;5070039;28;20033;-61
2023/06/08 09:48:56;;;;;;;2.08;1.35;;;22.80;56.20;;;;;;5052621;28;20029;-57
2023/06/08 09:51:23;;;;;;;6.22;1.83;;;23.00;56.10;;;;;;5060241;28;20028;-55
2023/06/08 09:53:57;;;;;;;2.08;1.35;;;23.10;55.70;;;;;;5066115;28;20055;-61
2023/06/08 09:56:25;;;;;;;11.93;1.75;;;23.30;55.70;;;;;;5065012;28;20067;-55
2023/06/08 09:58:53;;;;;;;2.28;1.52;;;23.40;55.60;;;;;;5061220;28;20021;-54
2023/06/08 10:01:27;;;;;;;7.22;1.85;;;23.60;55.20;;;;;;5040905;28;20056;-61
2023/06/08 10:03:57;;;;;;;5.38;1.67;;;23.70;54.80;;;;;;5061806;28;20791;-61
2023/06/08 10:06:25;;;;;;;3.58;1.65;;;23.80;54.10;;;;;;5064068;28;20075;-61
2023/06/08 10:08:53;;;;;;;4.80;2.00;;;24.00;53.80;;;;;;5068715;28;20020;-62
2023/06/08 10:11:21;;;;;;;2.83;1.77;;;24.10;53.90;;;;;;5068503;28;20506;-57
2023/06/08 10:13:48;;;;;;;3.20;1.20;;;24.20;53.40;;;;;;5067642;28;20063;-62
2023/06/08 10:16:13;;;;;;;2.65;1.35;;;24.30;53.20;;;;;;5066122;28;20037;-61
2023/06/08 10:18:40;;;;;;;3.55;2.33;;;24.60;53.40;;;;;;5062318;28;20098;-62
2023/06/08 10:21:07;;;;;;;1.83;1.40;;;24.70;52.80;;;;;;5047218;28;20032;-55
2023/06/08 10:23:33;;;;;;;2.33;1.40;;;24.90;52.70;;;;;;5062007;28;20431;-54
2023/06/08 10:26:00;;;;;;;2.58;1.17;;;24.90;52.10;;;;;;5063062;28;20037;-62
2023/06/08 10:28:26;;;;;;;2.50;1.15;;;24.90;52.30;;;;;;5043774;28;20108;-62
2023/06/08 10:30:51;;;;;;;2.15;1.92;;;24.90;52.60;;;;;;5029091;28;20129;-62
2023/06/08 10:33:24;;;;;;;2.10;1.20;;;25.10;52.30;;;;;;5062075;28;20098;-62
2023/06/08 10:36:10;;;;;;;2.45;1.20;;;25.10;52.20;;;;;;5065082;28;20448;-62
2023/06/08 10:38:56;;;;;;;2.08;1.05;;;25.20;52.20;;;;;;5059503;28;20035;-56
2023/06/08 10:41:44;;;;;;;4.30;1.30;;;25.50;52.10;;;;;;5065852;28;20012;-55
2023/06/08 10:44:29;;;;;;;1.40;1.30;;;25.80;52.00;;;;;;5044305;28;20048;-54
2023/06/08 10:46:59;;;;;;;1.33;1.08;;;26.10;51.60;;;;;;5067788;28;20109;-53
2023/06/08 10:49:30;;;;;;;4.78;1.40;;;26.30;50.90;;;;;;5063920;28;20028;-57
2023/06/08 10:51:56;;;;;;;2.38;1.30;;;26.40;50.40;;;;;;5063596;28;20395;-57
2023/06/08 10:54:25;;;;;;;1.00;0.90;;;26.50;50.10;;;;;;5064021;28;20344;-52
2023/06/08 10:56:54;;;;;;;2.25;1.25;;;26.60;49.80;;;;;;5066640;28;20047;-55
2023/06/08 10:59:33;;;;;;;0.80;0.80;;;26.60;49.60;;;;;;5066099;28;20028;-54
2023/06/08 11:02:04;;;;;;;1.35;1.25;;;26.70;49.80;;;;;;5061136;28;20082;-62
2023/06/08 11:04:30;;;;;;;1.25;1.00;;;26.90;49.60;;;;;;5061321;28;20122;-62
2023/06/08 11:07:04;;;;;;;2.60;1.30;;;27.00;49.10;;;;;;5059906;28;20459;-62
2023/06/08 11:09:36;;;;;;;2.05;1.20;;;27.10;48.90;;;;;;5062233;28;20043;-57
2023/06/08 11:12:04;;;;;;;2.58;1.33;;;27.20;49.00;;;;;;5062972;28;20519;-54
2023/06/08 11:14:29;;;;;;;1.55;1.05;;;27.30;48.50;;;;;;5062844;28;20440;-57
2023/06/08 11:16:56;;;;;;;4.65;1.60;;;27.40;48.00;;;;;;5059629;28;20068;-54
2023/06/08 11:19:23;;;;;;;2.00;1.05;;;27.50;47.90;;;;;;5064210;28;20036;-57
2023/06/08 11:21:53;;;;;;;3.03;1.35;;;27.60;47.90;;;;;;5043665;28;20083;-57
2023/06/08 11:24:25;;;;;;;1.55;0.98;;;27.80;47.70;;;;;;5066961;28;20135;-54
2023/06/08 11:27:01;;;;;;;1.13;0.82;;;27.90;47.60;;;;;;5048148;28;20017;-57
2023/06/08 11:29:27;;;;;;;2.85;1.65;;;28.10;47.40;;;;;;5065813;28;20050;-62
2023/06/08 11:32:08;;;;;;;3.03;1.40;;;28.20;46.70;;;;;;5063478;28;20028;-55
2023/06/08 11:34:34;;;;;;;2.30;1.20;;;28.20;46.80;;;;;;5044774;28;20113;-55
2023/06/08 11:37:00;;;;;;;1.80;1.15;;;28.30;46.60;;;;;;5060552;28;20071;-56
2023/06/08 11:39:32;;;;;;;1.52;0.95;;;28.40;46.50;;;;;;5059850;28;20036;-57
2023/06/08 11:41:58;;;;;;;0.88;0.88;;;28.50;46.60;;;;;;5063267;28;20021;-62
2023/06/08 11:44:26;;;;;;;1.88;1.10;;;28.60;46.60;;;;;;5064074;28;20035;-56
2023/06/08 11:46:52;;;;;;;1.33;1.23;;;28.60;46.40;;;;;;5067275;28;20067;-62
2023/06/08 11:49:21;;;;;;;1.95;1.15;;;28.70;46.40;;;;;;5067107;28;20387;-56
2023/06/08 11:51:49;;;;;;;1.38;1.27;;;28.80;46.00;;;;;;5047138;28;20040;-56
2023/06/08 11:54:15;;;;;;;1.75;1.13;;;28.80;45.80;;;;;;5064349;28;20043;-56
2023/06/08 11:56:45;;;;;;;0.80;0.80;;;28.80;45.90;;;;;;5048742;28;20047;-58
2023/06/08 11:59:14;;;;;;;1.88;1.30;;;28.90;45.80;;;;;;5066042;28;20029;-56
2023/06/08 12:02:00;;;;;;;3.40;1.30;;;29.00;45.80;;;;;;5066562;28;20025;-55
2023/06/08 12:04:30;;;;;;;2.35;1.50;;;28.90;45.40;;;;;;5058802;28;20028;-62
2023/06/08 12:06:57;;;;;;;1.63;1.42;;;28.90;45.30;;;;;;5041331;28;20132;-62
2023/06/08 12:09:23;;;;;;;0.90;0.90;;;28.90;45.60;;;;;;5067083;28;20514;-62
2023/06/08 12:11:49;;;;;;;2.65;1.00;;;29.00;45.70;;;;;;5048426;28;20159;-61
2023/06/08 12:14:15;;;;;;;1.55;1.00;;;29.10;45.70;;;;;;5049687;28;20040;-61
2023/06/08 12:16:44;;;;;;;1.65;0.93;;;29.20;45.50;;;;;;5067876;28;20063;-61
2023/06/08 12:19:10;;;;;;;1.45;1.05;;;29.30;45.40;;;;;;5072318;28;20111;-57
2023/06/08 12:21:40;;;;;;;1.02;0.90;;;29.40;45.00;;;;;;5069633;28;20079;-56
2023/06/08 12:24:06;;;;;;;2.22;1.10;;;29.50;44.80;;;;;;5068896;28;20142;-55
2023/06/08 12:26:32;;;;;;;2.17;1.30;;;29.60;44.60;;;;;;5071509;28;20056;-62
2023/06/08 12:29:06;;;;;;;1.52;1.10;;;29.70;44.30;;;;;;5062867;28;20060;-61
2023/06/08 12:31:33;;;;;;;1.33;1.05;;;29.80;44.50;;;;;;5066777;28;20544;-61
2023/06/08 12:33:59;;;;;;;1.73;1.00;;;29.90;44.20;;;;;;5070136;28;20025;-61
2023/06/08 12:36:25;;;;;;;3.85;1.40;;;30.00;44.10;;;;;;5070822;28;20105;-60
2023/06/08 12:38:50;;;;;;;1.73;0.90;;;30.00;43.80;;;;;;5069468;28;20647;-61
2023/06/08 12:41:18;;;;;;;2.05;1.20;;;30.20;43.80;;;;;;5067518;28;20369;-53
2023/06/08 12:43:46;;;;;;;0.90;0.90;;;30.30;43.80;;;;;;5051853;28;20414;-56
2023/06/08 12:46:18;;;;;;;1.45;0.80;;;30.50;43.70;;;;;;5069817;28;20495;-61
2023/06/08 12:48:44;;;;;;;1.15;1.08;;;30.70;43.70;;;;;;5070847;28;20368;-62